Time;durP1;ratioP1;P1;durP2;ratioP2;P2;SDS_P1;SDS_P2;PMS_P1;PMS_P2;Temp;Humidity;BMP_temperature;BMP_pressure;BME280_temperature;BME280_humidity;BME280_pressure;Samples;Min_cycle;Max_cycle;Signal;HPM_P1;HPM_P2
2022/11/06 00:00:36;;;;;;;;;;;;;;;19.61;65.82;96558.00;591440;239;68355;-70
2022/11/06 00:03:03;;;;;;;;;;;;;;;19.61;65.26;96547.33;587975;240;62643;-70
2022/11/06 00:08:18;;;;;;;;;;;;;;;19.62;65.04;96558.82;587750;241;68607;-69
2022/11/06 00:10:45;;;;;;;;;;;;;;;19.62;65.78;96548.95;588105;237;64914;-69
2022/11/06 00:13:13;;;;;;;;;;;;;;;19.61;65.00;96541.21;587760;241;68664;-69
2022/11/06 00:15:40;;;;;;;;;;;;;;;19.62;66.06;96553.48;587704;241;68693;-69
2022/11/06 00:18:08;;;;;;;;;;;;;;;19.62;65.69;96542.83;587744;241;64981;-69
2022/11/06 00:20:36;;;;;;;;;;;;;;;19.62;65.85;96538.28;587692;239;68865;-69
2022/11/06 00:23:03;;;;;;;;;;;;;;;19.61;65.91;96531.34;587788;241;68550;-69
2022/11/06 00:25:31;;;;;;;;;;;;;;;19.62;65.81;96538.28;587752;241;64915;-69
2022/11/06 00:27:58;;;;;;;;;;;;;;;19.61;65.83;96536.67;587717;241;68642;-69
2022/11/06 00:30:26;;;;;;;;;;;;;;;19.61;65.40;96534.00;587694;241;68625;-69
2022/11/06 00:32:53;;;;;;;;;;;;;;;19.61;65.48;96525.22;587742;241;64889;-69
2022/11/06 00:35:21;;;;;;;;;;;;;;;19.61;66.20;96539.34;587778;241;66572;-69
2022/11/06 00:37:48;;;;;;;;;;;;;;;19.61;65.70;96517.22;587744;241;66412;-69
2022/11/06 00:40:16;;;;;;;;;;;;;;;19.60;65.19;96515.64;587745;241;64948;-69
2022/11/06 00:42:43;;;;;;;;;;;;;;;19.60;65.32;96535.09;587706;241;68848;-69
2022/11/06 00:45:11;;;;;;;;;;;;;;;19.62;65.58;96522.30;587701;241;68911;-69
2022/11/06 00:47:38;;;;;;;;;;;;;;;19.62;66.56;96522.30;587774;241;62778;-69
2022/11/06 00:50:06;;;;;;;;;;;;;;;19.61;65.49;96522.55;587754;241;66486;-69
2022/11/06 00:52:33;;;;;;;;;;;;;;;19.61;65.92;96522.55;587730;241;68554;-69
2022/11/06 00:55:01;;;;;;;;;;;;;;;19.60;65.69;96521.77;587720;241;64842;-69
2022/11/06 00:57:28;;;;;;;;;;;;;;;19.60;65.83;96512.97;587732;241;68691;-69
2022/11/06 00:59:56;;;;;;;;;;;;;;;19.61;65.87;96533.22;587703;241;66597;-69
2022/11/06 01:02:23;;;;;;;;;;;;;;;19.60;65.45;96521.77;590212;240;63054;-69
2022/11/06 01:04:51;;;;;;;;;;;;;;;19.60;65.37;96507.64;591474;240;66125;-69
2022/11/06 01:07:18;;;;;;;;;;;;;;;19.60;65.60;96515.64;591429;240;66438;-69
2022/11/06 01:09:46;;;;;;;;;;;;;;;19.59;65.77;96506.85;591426;240;64899;-69
2022/11/06 01:12:13;;;;;;;;;;;;;;;19.60;65.72;96516.43;591457;240;66736;-69
2022/11/06 01:14:41;;;;;;;;;;;;;;;19.60;65.60;96508.44;591496;240;66479;-69
2022/11/06 01:17:09;;;;;;;;;;;;;;;19.59;65.63;96506.85;591473;240;64887;-69
2022/11/06 01:19:36;;;;;;;;;;;;;;;19.59;65.32;96508.70;591458;240;68596;-69
2022/11/06 01:22:04;;;;;;;;;;;;;;;19.60;65.71;96510.31;591448;239;66509;-69
2022/11/06 01:24:31;;;;;;;;;;;;;;;19.59;65.16;96522.84;591438;240;62775;-69
2022/11/06 01:26:59;;;;;;;;;;;;;;;19.59;65.72;96528.17;591501;240;66470;-69
2022/11/06 01:29:27;;;;;;;;;;;;;;;19.59;65.82;96533.50;591460;240;68586;-69
2022/11/06 01:31:54;;;;;;;;;;;;;;;19.59;65.36;96540.67;591453;240;64872;-69
2022/11/06 01:34:22;;;;;;;;;;;;;;;19.59;65.70;96538.84;591450;240;68642;-69
2022/11/06 01:36:49;;;;;;;;;;;;;;;19.58;65.53;96539.89;591436;240;68554;-69
2022/11/06 01:39:17;;;;;;;;;;;;;;;19.58;65.27;96539.89;591489;239;65216;-69
2022/11/06 01:41:46;;;;;;;;;;;;;;;19.59;65.38;96535.34;591458;240;68690;-69
2022/11/06 01:44:33;;;;;;;;;;;;;;;19.58;65.75;96545.22;591448;240;68646;-69
2022/11/06 01:47:02;;;;;;;;;;;;;;;19.58;65.20;96550.55;591437;240;65288;-69
2022/11/06 01:49:31;;;;;;;;;;;;;;;19.58;65.45;96553.22;591421;239;66891;-69
2022/11/06 01:52:00;;;;;;;;;;;;;;;19.58;65.21;96555.09;591659;236;66261;-69
2022/11/06 01:54:28;;;;;;;;;;;;;;;19.58;65.38;96545.22;591496;240;62921;-69
2022/11/06 01:56:57;;;;;;;;;;;;;;;19.57;65.86;96548.17;591453;240;66681;-69
2022/11/06 01:59:25;;;;;;;;;;;;;;;19.56;65.12;96560.70;591443;240;67012;-69
2022/11/06 02:01:53;;;;;;;;;;;;;;;19.57;66.26;96562.30;591403;240;62815;-69
2022/11/06 02:04:22;;;;;;;;;;;;;;;19.57;65.93;96546.30;591436;239;66492;-69
2022/11/06 02:06:50;;;;;;;;;;;;;;;19.57;65.81;96551.62;591443;240;66431;-69
2022/11/06 02:09:18;;;;;;;;;;;;;;;19.56;65.92;96550.05;591496;240;62780;-69
2022/11/06 02:11:47;;;;;;;;;;;;;;;19.56;65.46;96550.05;591441;240;66514;-68
2022/11/06 02:14:33;;;;;;;;;;;;;;;19.56;65.92;96560.70;591462;236;66440;-69
2022/11/06 02:17:11;;;;;;;;;;;;;;;19.56;65.71;96555.37;591470;240;64923;-69
2022/11/06 02:19:58;;;;;;;;;;;;;;;19.57;65.05;96556.17;591584;236;66107;-70
2022/11/06 02:22:27;;;;;;;;;;;;;;;19.56;64.99;96559.88;591421;240;68558;-68
2022/11/06 02:24:56;;;;;;;;;;;;;;;19.56;65.53;96560.70;591341;236;64904;-68
2022/11/06 02:27:24;;;;;;;;;;;;;;;19.55;65.65;96561.76;591632;236;68870;-69
2022/11/06 02:30:05;;;;;;;;;;;;;;;19.55;66.02;96555.64;591476;240;68506;-69
2022/11/06 02:32:46;;;;;;;;;;;;;;;19.55;65.69;96561.76;591438;239;64916;-69
2022/11/06 02:35:28;;;;;;;;;;;;;;;19.54;65.49;96560.17;591420;240;68643;-70
2022/11/06 02:38:00;;;;;;;;;;;;;;;19.54;65.57;96562.84;591503;240;66449;-69
2022/11/06 02:40:30;;;;;;;;;;;;;;;19.54;65.38;96570.84;591587;236;65083;-69
2022/11/06 02:42:59;;;;;;;;;;;;;;;19.55;65.50;96569.75;591456;240;68864;-69
2022/11/06 02:45:28;;;;;;;;;;;;;;;19.54;65.38;96565.50;591439;240;66454;-69
2022/11/06 02:47:57;;;;;;;;;;;;;;;19.54;65.57;96570.84;591437;240;62768;-68
2022/11/06 02:50:32;;;;;;;;;;;;;;;19.53;65.13;96566.55;591478;240;66702;-68
2022/11/06 02:53:04;;;;;;;;;;;;;;;19.53;65.13;96569.22;591507;240;66473;-69
2022/11/06 02:55:33;;;;;;;;;;;;;;;19.54;65.40;96564.71;591473;240;62630;-69
2022/11/06 02:58:02;;;;;;;;;;;;;;;19.54;65.66;96551.39;591546;236;66418;-69
2022/11/06 03:00:30;;;;;;;;;;;;;;;19.53;65.71;96563.89;591412;240;66440;-69
2022/11/06 03:03:00;;;;;;;;;;;;;;;19.53;66.08;96582.55;591465;240;62798;-69
2022/11/06 03:05:37;;;;;;;;;;;;;;;19.54;65.61;96584.16;591571;236;66536;-69
2022/11/06 03:08:16;;;;;;;;;;;;;;;19.53;65.52;96577.22;591526;239;65948;-69
2022/11/06 03:10:53;;;;;;;;;;;;;;;19.52;65.85;96591.63;591468;240;64887;-69
2022/11/06 03:13:22;;;;;;;;;;;;;;;19.53;65.87;96590.55;591543;236;68333;-70
2022/11/06 03:15:54;;;;;;;;;;;;;;;19.52;66.44;96584.42;591454;240;68647;-70
2022/11/06 03:18:24;;;;;;;;;;;;;;;19.52;66.00;96591.63;591664;236;62695;-70
2022/11/06 03:20:58;;;;;;;;;;;;;;;19.52;65.87;96592.41;591621;235;66265;-69
2022/11/06 03:23:30;;;;;;;;;;;;;;;19.53;65.94;96598.54;591505;240;68920;-69
2022/11/06 03:26:19;;;;;;;;;;;;;;;19.52;65.70;96591.63;591557;236;45010;-69
2022/11/06 03:28:48;;;;;;;;;;;;;;;19.52;65.71;96607.62;591448;239;73640;-71
2022/11/06 03:31:17;;;;;;;;;;;;;;;19.52;66.14;96607.62;591456;240;68555;-71
2022/11/06 03:33:46;;;;;;;;;;;;;;;19.50;65.75;96609.74;591459;240;64873;-71
2022/11/06 03:36:18;;;;;;;;;;;;;;;19.50;66.18;96626.53;591537;236;68413;-70
2022/11/06 03:38:47;;;;;;;;;;;;;;;19.51;66.17;96619.36;591611;236;68570;-69
2022/11/06 03:41:16;;;;;;;;;;;;;;;19.51;66.21;96616.69;591450;240;62719;-69
2022/11/06 03:43:45;;;;;;;;;;;;;;;19.50;66.33;96618.53;591526;236;66563;-69
2022/11/06 03:46:14;;;;;;;;;;;;;;;19.50;66.01;96631.86;591402;239;66683;-69
2022/11/06 03:48:43;;;;;;;;;;;;;;;19.51;65.88;96638.02;591471;240;62759;-69
2022/11/06 03:51:12;;;;;;;;;;;;;;;19.50;65.91;96631.86;591508;236;66562;-69
2022/11/06 03:53:41;;;;;;;;;;;;;;;19.50;65.76;96625.73;591489;236;68523;-69
2022/11/06 03:56:10;;;;;;;;;;;;;;;19.51;65.00;96635.34;591452;236;64912;-69
2022/11/06 03:58:38;;;;;;;;;;;;;;;19.51;65.79;96627.35;591426;236;66400;-69
2022/11/06 04:01:07;;;;;;;;;;;;;;;19.51;66.01;96630.02;590964;240;66518;-69
2022/11/06 04:03:36;;;;;;;;;;;;;;;19.50;66.06;96636.39;587758;241;62745;-69
2022/11/06 04:06:11;;;;;;;;;;;;;;;19.50;65.61;96649.72;587879;237;66403;-69
2022/11/06 04:14:13;;;;;;;;;;;;;;;19.49;65.79;96634.81;587752;241;66522;-70
2022/11/06 04:16:42;;;;;;;;;;;;;;;19.49;65.48;96640.14;587734;240;68490;-70
2022/11/06 04:19:17;;;;;;;;;;;;;;;19.49;65.08;96650.80;587710;241;64915;-70
2022/11/06 04:21:49;;;;;;;;;;;;;;;19.50;65.65;96647.06;587752;241;66027;-70
2022/11/06 04:27:17;;;;;;;;;;;;;;;19.49;65.82;96656.13;587788;241;65133;-70
2022/11/06 04:29:49;;;;;;;;;;;;;;;19.48;66.01;96649.22;587885;237;66369;-71
2022/11/06 04:32:27;;;;;;;;;;;;;;;19.49;65.72;96648.93;587691;237;68646;-69
2022/11/06 04:35:11;;;;;;;;;;;;;;;19.48;65.71;96649.22;587925;237;62930;-70
2022/11/06 04:37:40;;;;;;;;;;;;;;;19.48;64.99;96651.88;587754;241;68639;-70
2022/11/06 04:40:12;;;;;;;;;;;;;;;19.48;65.39;96643.88;587936;237;68489;-70
2022/11/06 04:42:44;;;;;;;;;;;;;;;19.48;65.62;96642.02;587935;237;65145;-70
2022/11/06 04:45:13;;;;;;;;;;;;;;;19.46;65.31;96644.14;587911;237;68729;-70
2022/11/06 04:47:41;;;;;;;;;;;;;;;19.47;65.11;96653.72;587738;241;68523;-70
2022/11/06 04:50:10;;;;;;;;;;;;;;;19.48;64.61;96651.88;587751;241;64671;-70
2022/11/06 04:52:39;;;;;;;;;;;;;;;19.47;65.40;96653.72;587680;240;68373;-70
2022/11/06 04:55:06;;;;;;;;;;;;;;;19.48;64.63;96638.55;587694;241;66745;-70
2022/11/06 04:57:34;;;;;;;;;;;;;;;19.48;65.12;96633.22;587771;240;62662;-70
2022/11/06 05:00:03;;;;;;;;;;;;;;;19.48;65.12;96641.22;587715;241;68644;-70
2022/11/06 05:02:30;;;;;;;;;;;;;;;19.47;65.23;96637.73;590344;240;68682;-70
2022/11/06 05:04:58;;;;;;;;;;;;;;;19.47;64.10;96637.73;591460;239;65195;-70
2022/11/06 05:07:27;;;;;;;;;;;;;;;19.47;64.23;96643.06;591432;239;68633;-70
2022/11/06 05:09:54;;;;;;;;;;;;;;;19.48;64.72;96654.55;591502;240;68539;-70
2022/11/06 05:12:21;;;;;;;;;;;;;;;19.48;64.94;96651.88;591448;240;64916;-70
2022/11/06 05:14:49;;;;;;;;;;;;;;;19.48;64.67;96662.54;591489;240;68672;-70
2022/11/06 05:17:16;;;;;;;;;;;;;;;19.47;64.40;96664.38;591467;240;66352;-70
2022/11/06 05:19:44;;;;;;;;;;;;;;;19.47;65.04;96669.71;591452;240;62770;-70
2022/11/06 05:24:57;;;;;;;;;;;;;;;19.47;64.57;96668.92;591514;240;66213;-70
2022/11/06 05:27:24;;;;;;;;;;;;;;;19.47;64.74;96687.58;591455;240;62747;-70
2022/11/06 05:29:52;;;;;;;;;;;;;;;19.47;64.22;96684.91;591450;240;66404;-70
2022/11/06 05:32:19;;;;;;;;;;;;;;;19.46;63.88;96686.78;591431;240;66449;-70
2022/11/06 05:34:47;;;;;;;;;;;;;;;19.46;64.35;96691.31;591436;240;62756;-70
2022/11/06 05:37:14;;;;;;;;;;;;;;;19.47;64.42;96706.23;591499;240;66536;-70
2022/11/06 05:39:42;;;;;;;;;;;;;;;19.48;64.71;96713.17;591473;240;66174;-70
2022/11/06 05:42:09;;;;;;;;;;;;;;;19.47;65.32;96716.89;591465;240;62812;-70
2022/11/06 05:44:36;;;;;;;;;;;;;;;19.45;64.46;96714.52;591437;240;66398;-70
2022/11/06 05:47:04;;;;;;;;;;;;;;;19.46;64.92;96710.77;591395;240;68829;-70
2022/11/06 05:49:32;;;;;;;;;;;;;;;19.45;65.15;96713.69;591475;240;65203;-70
2022/11/06 05:51:59;;;;;;;;;;;;;;;19.46;65.53;96717.97;591458;240;68648;-70
2022/11/06 05:54:26;;;;;;;;;;;;;;;19.47;65.21;96722.22;591457;240;68485;-70
2022/11/06 05:56:54;;;;;;;;;;;;;;;19.45;65.63;96719.02;591450;240;62793;-70
2022/11/06 05:59:21;;;;;;;;;;;;;;;19.45;65.06;96730.50;591448;240;66401;-70
2022/11/06 06:01:49;;;;;;;;;;;;;;;19.45;64.77;96730.50;591456;239;66526;-70
2022/11/06 06:04:16;;;;;;;;;;;;;;;19.45;64.82;96724.34;591490;240;63606;-70
2022/11/06 06:06:44;;;;;;;;;;;;;;;19.45;64.50;96729.67;591447;240;68391;-70
2022/11/06 06:09:12;;;;;;;;;;;;;;;19.45;64.35;96743.83;591449;240;66705;-70
2022/11/06 06:11:39;;;;;;;;;;;;;;;19.45;64.97;96745.67;591411;240;62766;-70
2022/11/06 06:14:07;;;;;;;;;;;;;;;19.44;62.98;96749.41;591473;240;66753;-70
2022/11/06 06:16:34;;;;;;;;;;;;;;;19.43;65.50;96742.49;591435;240;66463;-70
2022/11/06 06:19:02;;;;;;;;;;;;;;;19.44;65.87;96738.75;591435;240;62765;-70
2022/11/06 06:21:29;;;;;;;;;;;;;;;19.44;65.92;96744.08;591459;240;66685;-69
2022/11/06 06:23:57;;;;;;;;;;;;;;;19.45;65.83;96754.48;591487;240;66436;-69
2022/11/06 06:26:24;;;;;;;;;;;;;;;19.44;65.54;96763.53;591474;240;62861;-69
2022/11/06 06:28:51;;;;;;;;;;;;;;;19.44;65.39;96763.53;591524;240;66431;-69
2022/11/06 06:31:19;;;;;;;;;;;;;;;19.45;65.47;96765.14;591463;240;66391;-69
2022/11/06 06:33:47;;;;;;;;;;;;;;;19.45;65.39;96766.98;591475;240;62751;-69
2022/11/06 06:36:14;;;;;;;;;;;;;;;19.45;65.56;96762.48;591466;239;66463;-69
2022/11/06 06:38:42;;;;;;;;;;;;;;;19.46;65.52;96765.94;591467;239;66577;-69
2022/11/06 06:41:09;;;;;;;;;;;;;;;19.45;65.34;96767.81;591500;240;64030;-69
2022/11/06 06:43:37;;;;;;;;;;;;;;;19.47;65.61;96783.52;591486;239;66463;-69
2022/11/06 06:46:06;;;;;;;;;;;;;;;19.46;66.05;96777.39;591446;239;68541;-69
2022/11/06 06:48:34;;;;;;;;;;;;;;;19.46;65.78;96774.73;591472;240;66021;-70
2022/11/06 06:51:02;;;;;;;;;;;;;;;19.47;65.86;96780.85;591464;240;68696;-69
2022/11/06 06:53:29;;;;;;;;;;;;;;;19.46;65.80;96782.72;591541;240;66293;-69
2022/11/06 06:56:00;;;;;;;;;;;;;;;19.47;65.73;96786.18;591444;240;63667;-69
2022/11/06 06:58:28;;;;;;;;;;;;;;;19.47;65.87;96786.18;591483;240;68656;-70
2022/11/06 07:00:58;;;;;;;;;;;;;;;19.47;65.49;96786.18;591205;240;69077;-69
2022/11/06 07:03:25;;;;;;;;;;;;;;;19.47;65.88;96788.84;587741;237;64954;-70
2022/11/06 07:05:53;;;;;;;;;;;;;;;19.47;65.76;96786.98;587795;240;68593;-69
2022/11/06 07:08:20;;;;;;;;;;;;;;;19.47;65.85;96802.97;587767;240;68503;-69
2022/11/06 07:10:47;;;;;;;;;;;;;;;19.47;65.91;96802.17;587731;241;64996;-69
2022/11/06 07:13:15;;;;;;;;;;;;;;;19.47;65.51;96808.30;587751;241;68678;-70
2022/11/06 07:15:42;;;;;;;;;;;;;;;19.47;66.10;96797.64;587778;241;69151;-69
2022/11/06 07:18:12;;;;;;;;;;;;;;;19.47;65.84;96802.17;587670;240;64915;-69
2022/11/06 07:20:39;;;;;;;;;;;;;;;19.46;65.86;96812.04;587793;241;65958;-69
2022/11/06 07:23:07;;;;;;;;;;;;;;;19.48;66.01;96809.13;587794;241;68300;-69
2022/11/06 07:25:35;;;;;;;;;;;;;;;19.48;66.08;96806.45;587739;241;62778;-69
2022/11/06 07:28:04;;;;;;;;;;;;;;;19.47;66.18;96800.30;587759;241;66619;-69
2022/11/06 07:30:32;;;;;;;;;;;;;;;19.48;66.08;96795.80;587755;240;68339;-69
2022/11/06 07:33:00;;;;;;;;;;;;;;;19.47;65.95;96800.30;587798;241;63091;-69
2022/11/06 07:35:28;;;;;;;;;;;;;;;19.47;66.19;96802.17;587732;241;66133;-69
2022/11/06 07:37:56;;;;;;;;;;;;;;;19.47;66.16;96802.17;587764;241;68459;-69
2022/11/06 07:40:24;;;;;;;;;;;;;;;19.47;65.85;96800.30;587738;241;64831;-69
2022/11/06 07:42:51;;;;;;;;;;;;;;;19.47;66.02;96799.51;587747;241;68732;-69
2022/11/06 07:45:19;;;;;;;;;;;;;;;19.48;66.17;96817.12;587766;241;68904;-69
2022/11/06 07:47:46;;;;;;;;;;;;;;;19.47;66.08;96813.63;587701;241;64903;-69
2022/11/06 07:50:14;;;;;;;;;;;;;;;19.48;66.04;96811.78;587730;241;68700;-69
2022/11/06 07:52:41;;;;;;;;;;;;;;;19.47;66.22;96807.50;587730;241;68716;-70
2022/11/06 07:55:09;;;;;;;;;;;;;;;19.48;66.30;96814.45;587734;241;64884;-70
2022/11/06 07:57:36;;;;;;;;;;;;;;;19.47;66.54;96805.63;587766;241;68806;-70
2022/11/06 08:00:05;;;;;;;;;;;;;;;19.47;66.75;96805.63;587754;241;68482;-70
2022/11/06 08:02:34;;;;;;;;;;;;;;;19.47;66.55;96807.50;590391;240;42389;-70
2022/11/06 08:05:02;;;;;;;;;;;;;;;19.48;66.27;96803.80;591482;240;66392;-70
2022/11/06 08:07:29;;;;;;;;;;;;;;;19.47;66.37;96807.50;591454;239;66465;-70
2022/11/06 08:09:57;;;;;;;;;;;;;;;19.47;66.19;96808.30;591476;240;62781;-70
2022/11/06 08:12:26;;;;;;;;;;;;;;;19.47;66.61;96805.63;591460;238;68418;-70
2022/11/06 08:14:53;;;;;;;;;;;;;;;19.47;66.71;96818.16;591382;240;68902;-70
2022/11/06 08:17:21;;;;;;;;;;;;;;;19.48;66.62;96825.11;591465;240;64828;-70
2022/11/06 08:19:48;;;;;;;;;;;;;;;19.46;66.37;96817.38;591476;240;68525;-70
2022/11/06 08:22:16;;;;;;;;;;;;;;;19.47;66.10;96812.84;591451;240;68481;-70
2022/11/06 08:24:43;;;;;;;;;;;;;;;19.46;66.45;96812.04;591516;240;63547;-70
2022/11/06 08:27:12;;;;;;;;;;;;;;;19.47;66.28;96810.17;591405;240;66393;-70
2022/11/06 08:29:40;;;;;;;;;;;;;;;19.47;66.43;96810.97;591472;240;68370;-70
2022/11/06 08:32:07;;;;;;;;;;;;;;;19.47;66.38;96818.16;591505;240;64887;-70
2022/11/06 08:34:35;;;;;;;;;;;;;;;19.48;66.47;96822.45;591535;240;68159;-69
2022/11/06 08:37:03;;;;;;;;;;;;;;;19.48;66.42;96817.12;591460;239;66010;-69
2022/11/06 08:39:30;;;;;;;;;;;;;;;19.47;66.45;96815.50;591443;239;62788;-70
2022/11/06 08:41:58;;;;;;;;;;;;;;;19.48;66.50;96830.45;591470;240;66511;-69
2022/11/06 08:44:25;;;;;;;;;;;;;;;19.47;66.57;96826.95;591477;240;66270;-69
2022/11/06 08:46:53;;;;;;;;;;;;;;;19.47;66.72;96832.28;591511;240;62874;-69
2022/11/06 08:49:20;;;;;;;;;;;;;;;19.47;66.85;96828.83;591475;240;66130;-69
2022/11/06 08:51:47;;;;;;;;;;;;;;;19.48;66.58;96819.78;591478;240;68302;-69
2022/11/06 08:54:15;;;;;;;;;;;;;;;19.48;66.79;96822.45;591482;240;65096;-69
2022/11/06 08:56:42;;;;;;;;;;;;;;;19.47;66.42;96815.50;591474;239;68757;-69
2022/11/06 08:59:10;;;;;;;;;;;;;;;19.47;66.36;96818.95;591496;240;69231;-69
2022/11/06 09:01:37;;;;;;;;;;;;;;;19.48;66.82;96822.45;590193;239;64994;-69
2022/11/06 09:04:05;;;;;;;;;;;;;;;19.46;66.88;96833.36;587740;241;68323;-69
2022/11/06 09:06:32;;;;;;;;;;;;;;;19.47;66.94;96828.83;587746;239;66392;-69
2022/11/06 09:09:00;;;;;;;;;;;;;;;19.47;66.66;96828.83;587746;240;65222;-70
2022/11/06 09:11:27;;;;;;;;;;;;;;;19.47;67.05;96826.16;587731;241;68617;-70
2022/11/06 09:13:55;;;;;;;;;;;;;;;19.47;66.76;96823.50;587811;241;68302;-70
2022/11/06 09:16:23;;;;;;;;;;;;;;;19.47;67.11;96828.83;587768;241;62760;-70
2022/11/06 09:18:52;;;;;;;;;;;;;;;19.47;67.11;96828.83;587739;240;66310;-70
2022/11/06 09:21:20;;;;;;;;;;;;;;;19.47;66.51;96834.16;587774;241;67966;-70
2022/11/06 09:23:47;;;;;;;;;;;;;;;19.46;66.84;96832.56;587723;240;65043;-71
2022/11/06 09:26:17;;;;;;;;;;;;;;;19.46;66.85;96838.69;587856;240;50551;-71
2022/11/06 09:28:45;;;;;;;;;;;;;;;19.46;66.70;96844.02;587712;241;68709;-68
2022/11/06 09:31:13;;;;;;;;;;;;;;;19.47;66.66;96836.82;587744;241;64910;-70
2022/11/06 09:33:40;;;;;;;;;;;;;;;19.46;66.65;96844.02;587743;241;68496;-68
2022/11/06 09:36:08;;;;;;;;;;;;;;;19.47;66.81;96842.15;587699;240;68491;-68
2022/11/06 09:38:35;;;;;;;;;;;;;;;19.45;66.88;96847.77;587807;241;65111;-70
2022/11/06 09:41:03;;;;;;;;;;;;;;;19.47;67.19;96850.14;587747;241;68365;-69
2022/11/06 09:43:49;;;;;;;;;;;;;;;19.46;67.04;96848.55;587712;240;68406;-70
2022/11/06 09:46:30;;;;;;;;;;;;;;;19.46;67.19;96838.69;587759;241;64932;-70
2022/11/06 09:49:02;;;;;;;;;;;;;;;19.46;66.78;96838.69;587743;241;68275;-70
2022/11/06 09:51:31;;;;;;;;;;;;;;;19.46;66.87;96837.89;587731;237;66483;-70
2022/11/06 09:54:00;;;;;;;;;;;;;;;19.45;66.87;96842.43;587737;240;63338;-69
2022/11/06 09:56:29;;;;;;;;;;;;;;;19.45;67.32;96837.10;587633;240;68825;-69
2022/11/06 09:58:58;;;;;;;;;;;;;;;19.45;66.58;96838.94;587710;241;68474;-69
2022/11/06 10:01:26;;;;;;;;;;;;;;;19.46;66.40;96843.23;588650;238;65074;-70
2022/11/06 10:03:55;;;;;;;;;;;;;;;19.46;66.59;96840.56;591453;236;68422;-69
2022/11/06 10:06:24;;;;;;;;;;;;;;;19.46;66.84;96848.55;591340;240;68470;-69
2022/11/06 10:08:53;;;;;;;;;;;;;;;19.45;66.77;96839.77;590973;240;66340;-69
2022/11/06 10:11:39;;;;;;;;;;;;;;;19.45;67.09;96842.43;591453;240;66147;-69
2022/11/06 10:14:25;;;;;;;;;;;;;;;19.45;66.61;96849.60;591302;240;68681;-69
2022/11/06 10:17:03;;;;;;;;;;;;;;;19.46;66.74;96848.55;591403;240;63041;-68
2022/11/06 10:19:32;;;;;;;;;;;;;;;19.46;66.60;96859.22;591770;236;66097;-68
2022/11/06 10:22:01;;;;;;;;;;;;;;;19.45;66.62;96857.59;591599;236;66404;-69
2022/11/06 10:24:33;;;;;;;;;;;;;;;19.45;66.42;96860.27;591740;236;62650;-69
2022/11/06 10:27:01;;;;;;;;;;;;;;;19.45;66.68;96860.27;591496;240;66252;-70
2022/11/06 10:29:30;;;;;;;;;;;;;;;19.45;66.95;96854.94;591467;240;68588;-70
2022/11/06 10:32:16;;;;;;;;;;;;;;;19.44;66.93;96856.80;591465;240;64897;-70
2022/11/06 10:34:45;;;;;;;;;;;;;;;19.45;66.43;96852.27;591475;240;68365;-69
2022/11/06 10:37:16;;;;;;;;;;;;;;;19.45;66.53;96842.43;591469;239;68172;-69
2022/11/06 10:39:45;;;;;;;;;;;;;;;19.45;66.83;96849.60;591478;240;62750;-69
2022/11/06 10:42:17;;;;;;;;;;;;;;;19.45;66.37;96852.27;591509;239;68446;-69
2022/11/06 10:44:46;;;;;;;;;;;;;;;19.44;66.72;96862.13;591421;240;68674;-69
2022/11/06 10:47:20;;;;;;;;;;;;;;;19.45;66.76;96858.42;591496;236;64928;-70
2022/11/06 10:49:52;;;;;;;;;;;;;;;19.45;66.38;96857.59;591459;240;68165;-69
2022/11/06 10:52:21;;;;;;;;;;;;;;;19.46;66.88;96859.22;591448;240;68378;-69
2022/11/06 10:55:08;;;;;;;;;;;;;;;19.45;66.61;96862.93;591521;240;64922;-69
2022/11/06 10:57:52;;;;;;;;;;;;;;;19.45;66.34;96860.27;591504;240;68351;-70
2022/11/06 11:00:20;;;;;;;;;;;;;;;19.45;66.43;96860.27;591452;240;68267;-70
2022/11/06 11:02:50;;;;;;;;;;;;;;;19.45;66.21;96857.59;591467;240;64884;-69
2022/11/06 11:05:19;;;;;;;;;;;;;;;19.45;66.41;96862.93;591547;235;68197;-70
2022/11/06 11:07:48;;;;;;;;;;;;;;;19.45;66.23;96854.94;591469;239;68344;-70
2022/11/06 11:10:26;;;;;;;;;;;;;;;19.45;66.31;96857.59;591462;240;62802;-68
2022/11/06 11:12:55;;;;;;;;;;;;;;;19.44;66.38;96862.13;591511;240;66368;-69
2022/11/06 11:15:23;;;;;;;;;;;;;;;19.46;65.98;96856.55;591496;240;68543;-69
2022/11/06 11:18:07;;;;;;;;;;;;;;;19.45;65.68;96854.94;591169;240;62991;-69
2022/11/06 11:20:36;;;;;;;;;;;;;;;19.45;66.19;96858.42;591480;240;66072;-69
2022/11/06 11:23:08;;;;;;;;;;;;;;;19.45;66.03;96857.59;591251;240;68435;-69
2022/11/06 11:25:35;;;;;;;;;;;;;;;19.45;66.14;96852.27;591486;240;62789;-69
2022/11/06 11:28:03;;;;;;;;;;;;;;;19.46;65.97;96853.89;591578;240;65903;-69
2022/11/06 11:30:31;;;;;;;;;;;;;;;19.45;66.12;96853.09;591282;240;66151;-69
2022/11/06 11:32:59;;;;;;;;;;;;;;;19.45;66.42;96855.76;591448;240;62774;-69
2022/11/06 11:35:28;;;;;;;;;;;;;;;19.45;66.49;96847.77;591469;240;67982;-69
2022/11/06 11:38:06;;;;;;;;;;;;;;;19.45;66.68;96846.94;591535;240;68043;-69
2022/11/06 11:40:38;;;;;;;;;;;;;;;19.44;66.05;96848.81;591391;236;65175;-69
2022/11/06 11:43:26;;;;;;;;;;;;;;;19.46;66.65;96853.89;591580;240;46644;-69
2022/11/06 11:46:11;;;;;;;;;;;;;;;19.46;66.22;96856.55;591484;240;68235;-69
2022/11/06 11:48:45;;;;;;;;;;;;;;;19.45;66.32;96853.09;591505;240;65321;-69
2022/11/06 11:51:30;;;;;;;;;;;;;;;19.45;66.29;96850.42;591493;240;68304;-70
2022/11/06 11:54:02;;;;;;;;;;;;;;;19.45;65.52;96849.60;591498;240;65995;-69
2022/11/06 11:56:30;;;;;;;;;;;;;;;19.44;66.23;96846.14;591513;236;65301;-69
2022/11/06 11:58:59;;;;;;;;;;;;;;;19.45;66.62;96841.61;591469;240;68345;-69
2022/11/06 12:01:38;;;;;;;;;;;;;;;19.45;66.02;96852.27;591471;239;66773;-69
2022/11/06 12:04:19;;;;;;;;;;;;;;;19.44;66.09;96846.14;591463;240;62869;-69
2022/11/06 12:06:51;;;;;;;;;;;;;;;19.45;65.63;96846.94;591514;240;68518;-70
2022/11/06 12:09:18;;;;;;;;;;;;;;;19.45;65.34;96846.94;591453;240;66472;-69
2022/11/06 12:11:47;;;;;;;;;;;;;;;19.45;66.05;96841.61;591408;240;63106;-70
2022/11/06 12:14:18;;;;;;;;;;;;;;;19.44;65.51;96834.69;591395;240;66142;-69
2022/11/06 12:16:48;;;;;;;;;;;;;;;19.44;65.55;96840.81;591464;240;68268;-70
2022/11/06 12:19:16;;;;;;;;;;;;;;;19.46;66.01;96848.55;591238;239;64912;-69
2022/11/06 12:21:44;;;;;;;;;;;;;;;19.45;65.50;96850.42;591494;240;68122;-69
2022/11/06 12:24:22;;;;;;;;;;;;;;;19.45;65.77;96852.27;591477;240;68663;-69
2022/11/06 12:26:51;;;;;;;;;;;;;;;19.45;66.13;96849.60;591458;240;65686;-68
2022/11/06 12:29:26;;;;;;;;;;;;;;;19.45;66.06;96852.27;591492;236;68647;-69
2022/11/06 12:31:55;;;;;;;;;;;;;;;19.45;66.28;96857.59;591505;240;68408;-69
2022/11/06 12:34:42;;;;;;;;;;;;;;;19.45;65.92;96857.59;591517;236;64916;-69
2022/11/06 12:37:27;;;;;;;;;;;;;;;19.45;65.48;96862.93;591122;240;66105;-70
2022/11/06 12:39:56;;;;;;;;;;;;;;;19.45;66.07;96857.59;591126;239;68331;-69
2022/11/06 12:42:25;;;;;;;;;;;;;;;19.45;66.60;96865.59;591232;239;65151;-69
2022/11/06 12:44:53;;;;;;;;;;;;;;;19.44;65.85;96858.67;591476;240;68841;-69
2022/11/06 12:47:22;;;;;;;;;;;;;;;19.45;65.79;96862.93;591494;240;66553;-69
2022/11/06 12:49:54;;;;;;;;;;;;;;;19.45;65.95;96860.27;591698;236;64872;-69
2022/11/06 12:52:23;;;;;;;;;;;;;;;19.45;65.74;96862.93;591623;236;66470;-68
2022/11/06 12:54:56;;;;;;;;;;;;;;;19.44;65.45;96867.47;591332;239;66463;-68
2022/11/06 12:57:32;;;;;;;;;;;;;;;19.45;65.60;96868.26;591458;239;62798;-69
2022/11/06 13:00:03;;;;;;;;;;;;;;;19.45;66.02;96868.26;591637;236;68649;-70
2022/11/06 13:02:35;;;;;;;;;;;;;;;19.45;65.22;96868.26;591452;240;68604;-68
2022/11/06 13:05:19;;;;;;;;;;;;;;;19.45;65.56;96874.41;591460;240;64973;-69
2022/11/06 13:08:03;;;;;;;;;;;;;;;19.45;65.95;96876.25;591501;236;68675;-69
2022/11/06 13:10:32;;;;;;;;;;;;;;;19.44;66.45;96875.45;591790;236;68278;-69
2022/11/06 13:13:01;;;;;;;;;;;;;;;19.44;66.32;96872.80;591522;236;65167;-69
2022/11/06 13:15:30;;;;;;;;;;;;;;;19.44;65.47;96879.99;592395;236;68623;-69